createdAt,value
2018-02-09T00:00:35.141Z,73.80
2018-02-09T00:01:35.122Z,74.70
2018-02-09T00:02:35.106Z,70.40
2018-02-09T00:03:35.088Z,71.20
2018-02-09T00:04:35.081Z,73.80
2018-02-09T00:05:35.055Z,70.40
2018-02-09T00:06:35.037Z,72.90
2018-02-09T00:07:35.017Z,73.40
2018-02-09T00:08:35.007Z,70.50
2018-02-09T00:09:34.980Z,78.50
2018-02-09T00:10:34.967Z,72.90
2018-02-09T00:11:34.944Z,76.30
2018-02-09T00:12:34.936Z,78.80
2018-02-09T00:13:34.915Z,74.70
2018-02-09T00:14:34.894Z,72.90
2018-02-09T00:15:34.874Z,74.90
2018-02-09T00:16:34.862Z,72.50
2018-02-09T00:17:34.848Z,71.20
2018-02-09T00:18:34.820Z,72.20
2018-02-09T00:19:34.804Z,70.80
2018-02-09T00:20:34.784Z,70.70
2018-02-09T00:21:34.776Z,71.80
2018-02-09T00:22:34.754Z,76.90
2018-02-09T00:23:34.730Z,70.60
2018-02-09T00:24:34.711Z,73.00
2018-02-09T00:25:34.700Z,74.50
2018-02-09T00:26:34.683Z,73.40
2018-02-09T00:27:34.660Z,78.20
2018-02-09T00:28:34.648Z,74.60
2018-02-09T00:29:34.628Z,72.00
2018-02-09T00:30:34.608Z,78.60
2018-02-09T00:31:34.593Z,73.80
2018-02-09T00:32:34.572Z,74.90
2018-02-09T00:33:34.556Z,77.50
2018-02-09T00:34:34.539Z,76.50
2018-02-09T00:35:34.522Z,74.50
2018-02-09T00:36:34.498Z,72.70
2018-02-09T00:37:34.479Z,75.60
2018-02-09T00:38:34.464Z,77.20
2018-02-09T00:39:34.445Z,75.80
2018-02-09T00:40:34.427Z,69.70
2018-02-09T00:41:34.409Z,73.60
2018-02-09T00:42:34.391Z,76.50
2018-02-09T00:43:34.374Z,73.80
2018-02-09T00:44:34.356Z,70.10
2018-02-09T00:45:34.345Z,74.50
2018-02-09T00:46:34.324Z,73.00
2018-02-09T00:47:34.303Z,74.30
2018-02-09T00:48:34.293Z,75.60
2018-02-09T00:49:34.274Z,71.90
2018-02-09T00:50:34.251Z,68.60
2018-02-09T00:51:34.232Z,75.40
2018-02-09T00:52:34.218Z,74.40
2018-02-09T00:53:34.201Z,72.20
2018-02-09T00:54:34.178Z,74.90
2018-02-09T00:55:34.161Z,78.40
2018-02-09T00:56:34.149Z,74.30
2018-02-09T00:57:34.131Z,73.70
2018-02-09T00:58:34.114Z,71.40
2018-02-09T00:59:34.096Z,72.00
2018-02-09T01:00:34.072Z,67.70
2018-02-09T01:01:34.057Z,72.30
2018-02-09T01:02:34.037Z,73.40
2018-02-09T01:03:34.017Z,76.90
2018-02-09T01:04:34.008Z,75.50
2018-02-09T01:05:33.986Z,71.50
2018-02-09T01:06:33.963Z,74.30
2018-02-09T01:07:33.959Z,73.50
2018-02-09T01:08:33.930Z,70.20
2018-02-09T01:09:33.916Z,69.50
2018-02-09T01:10:33.892Z,73.60
2018-02-09T01:11:33.874Z,70.60
2018-02-09T01:12:33.859Z,72.80
2018-02-09T01:13:33.839Z,73.30
2018-02-09T01:14:33.825Z,68.40
2018-02-09T01:15:33.802Z,71.60
2018-02-09T01:16:33.784Z,72.80
2018-02-09T01:17:33.772Z,69.70
2018-02-09T01:18:33.751Z,71.20
2018-02-09T01:19:33.737Z,71.00
2018-02-09T01:20:33.711Z,73.90
2018-02-09T01:21:33.694Z,73.10
2018-02-09T01:22:33.679Z,72.80
2018-02-09T01:23:33.657Z,69.40
2018-02-09T01:24:33.639Z,73.40
2018-02-09T01:25:33.626Z,75.80
2018-02-09T01:26:33.608Z,72.10
2018-02-09T01:27:33.585Z,75.80
2018-02-09T01:28:33.571Z,73.90
2018-02-09T01:29:33.550Z,74.00
2018-02-09T01:30:33.530Z,76.80
2018-02-09T01:31:33.513Z,73.20
2018-02-09T01:32:33.500Z,77.60
2018-02-09T01:33:33.484Z,77.50
2018-02-09T01:34:33.467Z,71.60
2018-02-09T01:35:33.442Z,79.00
2018-02-09T01:36:33.426Z,76.60
2018-02-09T01:37:33.408Z,76.50
2018-02-09T01:38:33.387Z,75.10
2018-02-09T01:39:33.370Z,72.20
2018-02-09T01:40:33.355Z,75.20
2018-02-09T01:41:33.334Z,70.10
2018-02-09T01:42:33.322Z,75.10
2018-02-09T01:43:33.298Z,77.00
2018-02-09T01:44:33.279Z,76.60
2018-02-09T01:45:33.263Z,76.30
2018-02-09T01:46:33.253Z,73.70
2018-02-09T01:47:33.233Z,73.20
2018-02-09T01:48:33.211Z,72.60
2018-02-09T01:49:33.191Z,77.50
2018-02-09T01:50:33.172Z,79.60
2018-02-09T01:51:33.156Z,73.10
2018-02-09T01:52:33.136Z,73.90
2018-02-09T01:53:33.119Z,84.80
2018-02-09T01:54:33.107Z,79.30
2018-02-09T01:55:33.088Z,73.20
2018-02-09T01:56:33.072Z,70.40
2018-02-09T01:57:33.054Z,74.00
2018-02-09T01:58:33.030Z,77.50
2018-02-09T01:59:33.014Z,75.90
2018-02-09T02:00:32.995Z,78.30
2018-02-09T02:01:32.974Z,76.70
2018-02-09T02:02:32.962Z,79.30
2018-02-09T02:03:32.939Z,80.40
2018-02-09T02:04:32.925Z,79.10
2018-02-09T02:05:32.911Z,80.40
2018-02-09T02:06:32.944Z,80.40
2018-02-09T02:07:32.869Z,77.90
2018-02-09T02:08:32.850Z,79.50
2018-02-09T02:09:32.831Z,78.00
2018-02-09T02:10:32.819Z,77.50
2018-02-09T02:11:32.799Z,80.00
2018-02-09T02:12:32.777Z,81.20
2018-02-09T02:13:32.767Z,69.90
2018-02-09T02:14:32.745Z,79.10
2018-02-09T02:15:32.722Z,74.60
2018-02-09T02:16:32.705Z,79.80
2018-02-09T02:17:32.693Z,78.20
2018-02-09T02:18:32.669Z,74.40
2018-02-09T02:19:32.653Z,79.40
2018-02-09T02:20:32.635Z,76.70
2018-02-09T02:21:32.619Z,77.10
2018-02-09T02:22:32.601Z,74.10
2018-02-09T02:23:32.584Z,78.50
2018-02-09T02:24:32.561Z,83.80
2018-02-09T02:25:32.552Z,85.70
2018-02-09T02:26:32.525Z,78.90
2018-02-09T02:27:32.512Z,81.90
2018-02-09T02:28:32.492Z,87.00
2018-02-09T02:29:32.481Z,85.00
2018-02-09T02:30:32.453Z,84.40
2018-02-09T02:31:32.436Z,82.00
2018-02-09T02:32:32.420Z,83.00
2018-02-09T02:33:32.400Z,85.90
2018-02-09T02:34:32.388Z,85.90
2018-02-09T02:35:32.374Z,83.30
2018-02-09T02:36:32.345Z,85.50
2018-02-09T02:37:32.326Z,83.30
2018-02-09T02:38:32.308Z,87.90
2018-02-09T02:39:32.290Z,91.90
2018-02-09T02:40:32.279Z,82.60
2018-02-09T02:41:32.256Z,86.00
2018-02-09T02:42:32.249Z,84.40
2018-02-09T02:43:32.226Z,84.40
2018-02-09T02:44:32.213Z,91.30
2018-02-09T02:45:32.183Z,87.60
2018-02-09T02:46:32.167Z,89.90
2018-02-09T02:47:32.149Z,93.90
2018-02-09T02:48:32.132Z,94.90
2018-02-09T02:49:32.113Z,92.00
2018-02-09T02:50:32.096Z,95.20
2018-02-09T02:51:32.076Z,98.60
2018-02-09T02:52:32.073Z,90.30
2018-02-09T02:53:32.041Z,91.10
2018-02-09T02:54:32.023Z,94.10
2018-02-09T02:55:32.011Z,98.00
2018-02-09T02:56:31.987Z,89.80
2018-02-09T02:57:31.979Z,92.90
2018-02-09T02:58:31.953Z,92.40
2018-02-09T02:59:31.931Z,95.50
2018-02-09T03:00:31.919Z,92.70
2018-02-09T03:01:31.897Z,87.30
2018-02-09T03:02:31.880Z,96.80
2018-02-09T03:03:31.910Z,89.40
2018-02-09T03:04:31.843Z,92.80
2018-02-09T03:05:31.825Z,90.90
2018-02-09T03:06:31.813Z,93.70
2018-02-09T03:07:31.788Z,92.20
2018-02-09T03:08:31.771Z,95.50
2018-02-09T03:09:31.752Z,91.20
2018-02-09T03:10:31.734Z,92.20
2018-02-09T03:11:31.721Z,92.90
2018-02-09T03:12:31.705Z,97.50
2018-02-09T03:13:31.681Z,95.20
2018-02-09T03:14:31.659Z,98.60
2018-02-09T03:15:31.643Z,94.40
2018-02-09T03:16:31.625Z,95.10
2018-02-09T03:17:31.610Z,92.70
2018-02-09T03:18:31.588Z,99.90
2018-02-09T03:19:31.576Z,99.30
2018-02-09T03:20:31.553Z,100.20
2018-02-09T03:21:31.535Z,93.10
2018-02-09T03:22:31.515Z,91.70
2018-02-09T03:23:31.498Z,93.50
2018-02-09T03:24:31.479Z,97.10
2018-02-09T03:25:31.463Z,91.80
2018-02-09T03:26:31.449Z,98.20
2018-02-09T03:27:31.424Z,89.60
2018-02-09T03:28:31.405Z,92.40
2018-02-09T03:29:31.393Z,91.90
2018-02-09T03:30:31.368Z,89.50
2018-02-09T03:31:31.359Z,93.90
2018-02-09T03:32:31.338Z,92.20
2018-02-09T03:33:31.315Z,94.70
2018-02-09T03:34:31.309Z,90.60
2018-02-09T03:35:31.277Z,95.30
2018-02-09T03:36:31.261Z,92.20
2018-02-09T03:37:31.248Z,90.20
2018-02-09T03:38:31.222Z,95.20
2018-02-09T03:39:31.206Z,94.00
2018-02-09T03:40:31.200Z,91.50
2018-02-09T03:41:31.172Z,89.90
2018-02-09T03:42:31.159Z,92.40
2018-02-09T03:43:31.134Z,91.10
2018-02-09T03:44:31.117Z,89.20
2018-02-09T03:45:31.098Z,89.80
2018-02-09T03:46:31.080Z,90.60
2018-02-09T03:47:31.060Z,93.60
2018-02-09T03:48:31.043Z,93.70
2018-02-09T03:49:31.029Z,93.60
2018-02-09T03:50:31.008Z,93.00
2018-02-09T03:51:30.995Z,87.90
2018-02-09T03:52:30.975Z,91.20
2018-02-09T03:53:30.962Z,88.30
2018-02-09T03:54:30.935Z,94.40
2018-02-09T03:55:30.932Z,97.50
2018-02-09T03:56:30.899Z,86.90
2018-02-09T03:57:30.882Z,90.30
2018-02-09T03:58:30.874Z,93.30
2018-02-09T03:59:30.845Z,84.10
2018-02-09T04:00:30.827Z,90.80
2018-02-09T04:01:30.810Z,92.20
2018-02-09T04:02:30.796Z,92.90
2018-02-09T04:03:30.778Z,100.50
2018-02-09T04:04:30.754Z,98.80
2018-02-09T04:05:30.738Z,91.40
2018-02-09T04:06:30.719Z,92.30
2018-02-09T04:07:30.703Z,93.20
2018-02-09T04:08:30.690Z,87.70
2018-02-09T04:09:30.673Z,93.00
2018-02-09T04:10:30.653Z,93.00
2018-02-09T04:11:30.629Z,90.90
2018-02-09T04:12:30.619Z,85.40
2018-02-09T04:13:30.622Z,95.10
2018-02-09T04:14:30.578Z,90.10
2018-02-09T04:15:30.557Z,90.00
2018-02-09T04:16:30.539Z,95.10
2018-02-09T04:17:30.530Z,92.20
2018-02-09T04:18:30.507Z,91.60
2018-02-09T04:19:30.488Z,89.60
2018-02-09T04:20:30.469Z,88.80
2018-02-09T04:21:30.454Z,94.30
2018-02-09T04:22:30.441Z,87.20
2018-02-09T04:23:30.420Z,94.80
2018-02-09T04:24:30.407Z,90.40
2018-02-09T04:25:30.385Z,95.40
2018-02-09T04:26:30.367Z,88.10
2018-02-09T04:27:30.343Z,91.70
2018-02-09T04:28:30.323Z,87.10
2018-02-09T04:29:30.307Z,96.80
2018-02-09T04:30:30.289Z,93.60
2018-02-09T04:31:30.277Z,89.30
2018-02-09T04:32:30.253Z,96.00
2018-02-09T04:33:30.235Z,90.10
2018-02-09T04:34:30.218Z,89.10
2018-02-09T04:35:30.200Z,88.60
2018-02-09T04:36:30.188Z,93.40
2018-02-09T04:37:30.165Z,92.10
2018-02-09T04:38:30.151Z,95.90
2018-02-09T04:39:30.130Z,97.00
2018-02-09T04:40:30.113Z,95.60
2018-02-09T04:41:30.093Z,93.90
2018-02-09T04:42:30.075Z,92.00
2018-02-09T04:43:30.055Z,92.30
2018-02-09T04:44:30.039Z,95.40
2018-02-09T04:45:30.023Z,92.00
2018-02-09T04:46:30.009Z,93.30
2018-02-09T04:47:29.985Z,89.60
2018-02-09T04:48:29.970Z,96.40
2018-02-09T04:49:29.951Z,92.60
2018-02-09T04:50:29.940Z,95.90
2018-02-09T04:51:29.912Z,93.60
2018-02-09T04:52:29.895Z,89.10
2018-02-09T04:53:29.884Z,87.00
2018-02-09T04:54:29.860Z,83.80
2018-02-09T04:55:29.842Z,86.80
2018-02-09T04:56:29.829Z,85.80
2018-02-09T04:57:29.813Z,85.60
2018-02-09T04:58:29.791Z,87.30
2018-02-09T04:59:29.776Z,84.30
2018-02-09T05:00:29.758Z,84.00
2018-02-09T05:01:29.738Z,88.00
2018-02-09T05:02:29.718Z,87.30
2018-02-09T05:03:29.701Z,86.60
2018-02-09T05:04:29.688Z,85.60
2018-02-09T05:05:29.664Z,91.80
2018-02-09T05:06:29.652Z,91.90
2018-02-09T05:07:29.628Z,88.70
2018-02-09T05:08:29.613Z,92.60
2018-02-09T05:09:29.597Z,86.60
2018-02-09T05:10:29.575Z,86.80
2018-02-09T05:11:29.560Z,91.40
2018-02-09T05:12:29.542Z,100.90
2018-02-09T05:13:29.520Z,98.10
2018-02-09T05:14:29.508Z,96.10
2018-02-09T05:15:29.485Z,97.30
2018-02-09T05:16:29.466Z,98.40
2018-02-09T05:17:29.450Z,99.00
2018-02-09T05:18:29.429Z,93.40
2018-02-09T05:19:29.417Z,95.20
2018-02-09T05:20:29.395Z,92.90
2018-02-09T05:21:29.375Z,91.00
2018-02-09T05:22:29.357Z,87.50
2018-02-09T05:23:29.344Z,86.90
2018-02-09T05:24:29.322Z,85.00
2018-02-09T05:25:29.302Z,90.40
2018-02-09T05:26:29.291Z,86.50
2018-02-09T05:27:29.264Z,87.90
2018-02-09T05:28:29.259Z,87.40
2018-02-09T05:29:29.231Z,89.20
2018-02-09T05:30:29.210Z,86.60
2018-02-09T05:31:29.194Z,89.10
2018-02-09T05:32:29.174Z,94.80
2018-02-09T05:33:29.156Z,91.80
2018-02-09T05:34:29.147Z,95.80
2018-02-09T05:35:29.127Z,95.10
2018-02-09T05:36:29.111Z,92.60
2018-02-09T05:37:29.083Z,89.10
2018-02-09T05:38:29.070Z,89.50
2018-02-09T05:39:29.046Z,92.90
2018-02-09T05:40:29.026Z,88.70
2018-02-09T05:41:29.009Z,87.70
2018-02-09T05:42:28.995Z,93.90
2018-02-09T05:43:28.970Z,86.50
2018-02-09T05:44:28.949Z,92.30
2018-02-09T05:45:28.932Z,93.80
2018-02-09T05:46:28.935Z,94.00
2018-02-09T05:47:28.896Z,95.00
2018-02-09T05:48:28.877Z,94.80
2018-02-09T05:49:28.859Z,95.60
2018-02-09T05:50:28.842Z,96.80
2018-02-09T05:51:28.826Z,94.30
2018-02-09T05:52:28.803Z,98.00
2018-02-09T05:53:28.788Z,89.90
2018-02-09T05:54:28.766Z,90.30
2018-02-09T05:55:28.748Z,93.10
2018-02-09T05:56:28.736Z,87.60
2018-02-09T05:57:28.713Z,87.70
2018-02-09T05:58:28.692Z,95.70
2018-02-09T05:59:28.672Z,89.00
2018-02-09T06:00:28.654Z,92.90
2018-02-09T06:01:28.641Z,91.70
2018-02-09T06:02:28.622Z,90.60
2018-02-09T06:03:28.607Z,88.40
2018-02-09T06:04:28.586Z,87.90
2018-02-09T06:05:28.677Z,88.40
2018-02-09T06:06:28.559Z,85.40
2018-02-09T06:07:28.540Z,81.20
2018-02-09T06:08:28.517Z,88.30
2018-02-09T06:09:28.492Z,88.50
2018-02-09T06:10:28.477Z,84.20
2018-02-09T06:11:28.456Z,86.50
2018-02-09T06:12:28.440Z,90.20
2018-02-09T06:13:28.427Z,90.20
2018-02-09T06:14:28.402Z,90.10
2018-02-09T06:15:28.381Z,96.60
2018-02-09T06:16:28.361Z,87.80
2018-02-09T06:17:28.347Z,87.50
2018-02-09T06:18:28.321Z,90.50
2018-02-09T06:19:28.302Z,92.00
2018-02-09T06:20:28.286Z,86.70
2018-02-09T06:21:28.269Z,93.40
2018-02-09T06:22:28.245Z,91.80
2018-02-09T06:23:28.236Z,92.20
2018-02-09T06:24:28.217Z,95.20
2018-02-09T06:25:28.199Z,90.00
2018-02-09T06:26:28.178Z,90.80
2018-02-09T06:27:28.156Z,85.40
2018-02-09T06:28:28.137Z,91.70
2018-02-09T06:29:28.118Z,90.60
2018-02-09T06:30:28.100Z,91.30
2018-02-09T06:31:28.080Z,94.20
2018-02-09T06:32:28.070Z,87.20
2018-02-09T06:33:28.046Z,91.50
2018-02-09T06:34:28.031Z,92.30
2018-02-09T06:35:28.009Z,90.80
2018-02-09T06:36:27.996Z,87.90
2018-02-09T06:37:27.972Z,90.10
2018-02-09T06:38:27.957Z,94.00
2018-02-09T06:39:27.942Z,91.80
2018-02-09T06:40:27.921Z,91.60
2018-02-09T06:41:27.902Z,90.90
2018-02-09T06:42:27.886Z,95.60
2018-02-09T06:43:27.870Z,90.90
2018-02-09T06:44:27.844Z,95.50
2018-02-09T06:45:27.827Z,92.60
2018-02-09T06:46:27.810Z,85.20
2018-02-09T06:47:27.794Z,89.10
2018-02-09T06:48:27.779Z,84.70
2018-02-09T06:49:27.756Z,87.00
2018-02-09T06:50:27.740Z,89.60
2018-02-09T06:51:27.722Z,83.50
2018-02-09T06:52:27.702Z,84.90
2018-02-09T06:53:27.686Z,86.30
2018-02-09T06:54:27.664Z,83.60
2018-02-09T06:55:27.648Z,86.70
2018-02-09T06:56:27.628Z,85.60
2018-02-09T06:57:27.609Z,84.70
2018-02-09T06:58:27.595Z,84.40
2018-02-09T06:59:27.572Z,82.90
2018-02-09T07:00:27.554Z,86.10
2018-02-09T07:01:27.536Z,83.20
2018-02-09T07:02:27.522Z,80.90
2018-02-09T07:03:27.500Z,90.00
2018-02-09T07:04:27.486Z,87.80
2018-02-09T07:05:27.461Z,83.10
2018-02-09T07:06:27.444Z,86.00
2018-02-09T07:07:27.425Z,83.50
2018-02-09T07:08:27.407Z,85.90
2018-02-09T07:09:27.392Z,82.20
2018-02-09T07:10:27.370Z,80.00
2018-02-09T07:11:27.353Z,91.00
2018-02-09T07:12:27.334Z,87.60
2018-02-09T07:13:27.319Z,82.80
2018-02-09T07:14:27.299Z,84.60
2018-02-09T07:15:27.280Z,83.60
2018-02-09T07:16:27.268Z,86.50
2018-02-09T07:17:27.244Z,82.20
2018-02-09T07:18:27.226Z,84.40
2018-02-09T07:19:27.208Z,79.50
2018-02-09T07:20:27.196Z,86.60
2018-02-09T07:21:27.174Z,85.40
2018-02-09T07:22:27.151Z,84.60
2018-02-09T07:23:27.133Z,81.70
2018-02-09T07:24:27.123Z,85.40
2018-02-09T07:25:27.099Z,81.40
2018-02-09T07:26:27.082Z,82.20
2018-02-09T07:27:27.060Z,84.70
2018-02-09T07:28:27.051Z,87.90
2018-02-09T07:29:27.035Z,92.50
2018-02-09T07:30:27.013Z,84.70
2018-02-09T07:31:26.994Z,92.50
2018-02-09T07:32:26.970Z,86.70
2018-02-09T07:33:26.951Z,90.60
2018-02-09T07:34:26.938Z,87.90
2018-02-09T07:35:26.915Z,80.10
2018-02-09T07:36:26.898Z,83.70
2018-02-09T07:37:26.882Z,82.40
2018-02-09T07:38:26.869Z,82.10
2018-02-09T07:39:26.843Z,83.00
2018-02-09T07:40:26.830Z,87.00
2018-02-09T07:41:26.807Z,90.40
2018-02-09T07:42:26.788Z,80.50
2018-02-09T07:43:26.773Z,86.00
2018-02-09T07:44:26.752Z,84.70
2018-02-09T07:45:26.733Z,86.40
2018-02-09T07:46:26.714Z,86.50
2018-02-09T07:47:26.696Z,86.20
2018-02-09T07:48:26.685Z,83.10
2018-02-09T07:49:26.660Z,82.80
2018-02-09T07:50:26.645Z,87.90
2018-02-09T07:51:26.623Z,86.60
2018-02-09T07:52:26.605Z,86.50
2018-02-09T07:53:26.592Z,83.50
2018-02-09T07:54:26.568Z,86.90
2018-02-09T07:55:26.555Z,84.20
2018-02-09T07:56:26.533Z,86.10
2018-02-09T07:57:26.515Z,86.00
2018-02-09T07:58:26.505Z,82.90
2018-02-09T07:59:26.479Z,90.00
2018-02-09T08:00:26.469Z,82.70
2018-02-09T08:01:26.445Z,83.70
2018-02-09T08:02:26.427Z,90.10
2018-02-09T08:03:26.411Z,81.50
2018-02-09T08:04:26.395Z,83.00
2018-02-09T08:05:26.378Z,90.50
2018-02-09T08:06:26.352Z,87.10
2018-02-09T08:07:26.334Z,80.80
2018-02-09T08:08:26.323Z,83.00
2018-02-09T08:09:26.300Z,85.40
2018-02-09T08:10:26.288Z,84.90
2018-02-09T08:11:26.269Z,84.20
2018-02-09T08:12:26.246Z,83.40
2018-02-09T08:13:26.225Z,82.40
2018-02-09T08:14:26.214Z,85.80
2018-02-09T08:15:26.192Z,81.80
2018-02-09T08:16:26.176Z,84.30
2018-02-09T08:17:26.163Z,82.30
2018-02-09T08:18:26.142Z,83.60
2018-02-09T08:19:26.119Z,84.50
2018-02-09T08:20:26.099Z,80.50
2018-02-09T08:21:26.089Z,78.70
2018-02-09T08:22:26.068Z,81.70
2018-02-09T08:23:26.049Z,86.60
2018-02-09T08:24:26.027Z,81.30
2018-02-09T08:25:26.010Z,80.70
2018-02-09T08:26:25.991Z,80.40
2018-02-09T08:27:25.979Z,86.90
2018-02-09T08:28:25.961Z,84.80
2018-02-09T08:29:25.944Z,78.40
2018-02-09T08:30:25.924Z,80.70
2018-02-09T08:31:25.910Z,84.30
2018-02-09T08:32:25.882Z,83.80
2018-02-09T08:33:25.863Z,81.30
2018-02-09T08:34:25.849Z,81.90
2018-02-09T08:35:25.833Z,82.00
2018-02-09T08:36:25.817Z,83.60
2018-02-09T08:37:25.792Z,79.20
2018-02-09T08:38:25.776Z,80.60
2018-02-09T08:39:25.754Z,75.40
2018-02-09T08:40:25.740Z,77.90
2018-02-09T08:41:25.719Z,80.10
2018-02-09T08:42:25.701Z,79.50
2018-02-09T08:43:25.681Z,77.30
2018-02-09T08:44:25.669Z,77.20
2018-02-09T08:45:25.645Z,76.80
2018-02-09T08:46:25.632Z,75.30
2018-02-09T08:47:25.609Z,79.20
2018-02-09T08:48:25.593Z,77.50
2018-02-09T08:49:25.574Z,78.10
2018-02-09T08:50:25.560Z,75.30
2018-02-09T08:51:25.535Z,82.50
2018-02-09T08:52:25.524Z,80.60
2018-02-09T08:53:25.501Z,83.40
2018-02-09T08:54:25.484Z,79.00
2018-02-09T08:55:25.464Z,80.00
2018-02-09T08:56:25.447Z,77.30
2018-02-09T08:57:25.433Z,81.90
2018-02-09T08:58:25.419Z,77.30
2018-02-09T08:59:25.416Z,86.00
2018-02-09T09:00:25.380Z,81.00
2018-02-09T09:01:25.357Z,81.20
2018-02-09T09:02:25.339Z,81.20
2018-02-09T09:03:25.330Z,78.70
2018-02-09T09:04:25.395Z,76.30
2018-02-09T09:05:25.284Z,76.80
2018-02-09T09:06:25.267Z,77.90
2018-02-09T09:07:25.253Z,81.10
2018-02-09T09:08:25.237Z,73.70
2018-02-09T09:09:25.219Z,75.80
2018-02-09T09:10:25.194Z,77.40
2018-02-09T09:11:25.178Z,75.70
2018-02-09T09:12:25.170Z,73.70
2018-02-09T09:13:25.164Z,71.60
2018-02-09T09:14:25.126Z,73.60
2018-02-09T09:15:25.156Z,73.30
2018-02-09T09:16:25.094Z,72.00
2018-02-09T09:17:25.075Z,68.80
2018-02-09T09:18:25.054Z,71.00
2018-02-09T09:19:25.064Z,66.70
2018-02-09T09:20:25.020Z,72.90
2018-02-09T09:21:25.009Z,68.80
2018-02-09T09:22:24.986Z,72.20
2018-02-09T09:23:24.989Z,69.30
2018-02-09T09:24:24.948Z,68.70
2018-02-09T09:25:24.934Z,66.80
2018-02-09T09:26:24.922Z,66.70
2018-02-09T09:27:24.896Z,70.80
2018-02-09T09:28:24.886Z,61.90
2018-02-09T09:29:24.876Z,60.50
2018-02-09T09:30:24.846Z,60.30
2018-02-09T09:31:24.827Z,65.90
2018-02-09T09:32:24.812Z,60.90
2018-02-09T09:33:24.793Z,60.00
2018-02-09T09:34:24.776Z,63.40
2018-02-09T09:35:24.760Z,60.50
2018-02-09T09:36:24.744Z,58.80
2018-02-09T09:37:24.730Z,60.70
2018-02-09T09:38:24.705Z,60.30
2018-02-09T09:39:24.704Z,58.60
2018-02-09T09:40:24.674Z,57.10
2018-02-09T09:41:24.655Z,58.80
2018-02-09T09:42:24.637Z,58.10
2018-02-09T09:43:24.619Z,60.30
2018-02-09T09:44:24.602Z,62.70
2018-02-09T09:45:24.592Z,59.70
2018-02-09T09:46:24.567Z,58.30
2018-02-09T09:47:24.553Z,58.00
2018-02-09T09:48:24.533Z,54.20
2018-02-09T09:49:24.522Z,56.60
2018-02-09T09:50:24.510Z,60.10
2018-02-09T09:51:24.483Z,57.90
2018-02-09T09:52:24.465Z,53.70
2018-02-09T09:53:24.449Z,51.20
2018-02-09T09:54:24.437Z,51.90
2018-02-09T09:55:24.419Z,52.40
2018-02-09T09:56:24.401Z,53.80
2018-02-09T09:57:24.383Z,55.90
2018-02-09T09:58:24.362Z,52.40
2018-02-09T09:59:24.345Z,50.80
2018-02-09T10:00:24.329Z,52.30
2018-02-09T10:01:24.312Z,53.00
2018-02-09T10:02:24.294Z,51.70
2018-02-09T10:03:24.282Z,53.90
2018-02-09T10:04:24.293Z,51.00
2018-02-09T10:05:24.246Z,51.70
2018-02-09T10:06:24.226Z,57.20
2018-02-09T10:07:24.217Z,54.30
2018-02-09T10:08:24.197Z,54.20
2018-02-09T10:09:24.185Z,53.30
2018-02-09T10:10:24.161Z,54.70
2018-02-09T10:11:24.141Z,51.80
2018-02-09T10:12:24.124Z,53.30
2018-02-09T10:13:24.108Z,47.90
2018-02-09T10:14:24.091Z,44.30
2018-02-09T10:15:24.076Z,44.50
2018-02-09T10:16:24.056Z,49.50
2018-02-09T10:17:24.042Z,46.50
2018-02-09T10:18:24.022Z,44.60
2018-02-09T10:19:24.005Z,46.80
2018-02-09T10:20:23.993Z,43.70
2018-02-09T10:21:23.978Z,45.90
2018-02-09T10:22:23.961Z,45.60
2018-02-09T10:23:23.943Z,42.40
2018-02-09T10:24:23.930Z,45.70
2018-02-09T10:25:23.905Z,46.60
2018-02-09T10:26:23.901Z,46.20
2018-02-09T10:27:23.877Z,47.40
2018-02-09T10:28:23.857Z,45.30
2018-02-09T10:29:23.868Z,44.30
2018-02-09T10:30:23.820Z,43.40
2018-02-09T10:31:23.813Z,44.90
2018-02-09T10:32:23.790Z,47.30
2018-02-09T10:33:23.770Z,44.00
2018-02-09T10:34:23.759Z,43.70
2018-02-09T10:35:23.739Z,43.70
2018-02-09T10:36:23.720Z,39.10
2018-02-09T10:37:23.704Z,39.10
2018-02-09T10:38:23.688Z,36.10
2018-02-09T10:39:23.669Z,37.90
2018-02-09T10:40:23.653Z,36.30
2018-02-09T10:41:23.642Z,37.70
2018-02-09T10:42:23.618Z,37.40
2018-02-09T10:43:23.605Z,37.10
2018-02-09T10:44:23.591Z,37.20
2018-02-09T10:45:23.599Z,39.90
2018-02-09T10:46:23.554Z,37.30
2018-02-09T10:47:23.538Z,35.40
2018-02-09T10:48:23.527Z,37.80
2018-02-09T10:49:23.511Z,36.50
2018-02-09T10:50:23.488Z,35.10
2018-02-09T10:51:23.485Z,35.10
2018-02-09T10:52:23.453Z,39.50
2018-02-09T10:53:23.437Z,36.40
2018-02-09T10:54:23.424Z,37.50
2018-02-09T10:55:23.405Z,37.50
2018-02-09T10:56:23.393Z,39.20
2018-02-09T10:57:23.371Z,38.50
2018-02-09T10:58:23.360Z,38.10
2018-02-09T10:59:23.339Z,36.70
2018-02-09T11:00:23.325Z,36.30
2018-02-09T11:01:23.308Z,39.50
2018-02-09T11:02:23.295Z,40.20
2018-02-09T11:03:23.281Z,38.30
2018-02-09T11:04:23.258Z,33.80
2018-02-09T11:05:23.250Z,40.40
2018-02-09T11:06:23.232Z,37.10
2018-02-09T11:07:23.209Z,36.40
2018-02-09T11:08:23.194Z,39.40
2018-02-09T11:09:23.184Z,37.80
2018-02-09T11:10:23.161Z,38.50
2018-02-09T11:11:23.154Z,39.20
2018-02-09T11:12:23.133Z,37.20
2018-02-09T11:13:23.118Z,41.00
2018-02-09T11:14:23.095Z,38.90
2018-02-09T11:15:23.080Z,39.00
2018-02-09T11:16:23.069Z,38.10
2018-02-09T11:17:23.049Z,41.40
2018-02-09T11:18:23.035Z,39.10
2018-02-09T11:19:23.016Z,40.50
2018-02-09T11:20:23.008Z,42.00
2018-02-09T11:21:22.986Z,40.20
2018-02-09T11:22:22.971Z,38.50
2018-02-09T11:23:22.953Z,35.70
2018-02-09T11:24:22.940Z,42.30
2018-02-09T11:25:22.918Z,45.00
2018-02-09T11:26:22.907Z,41.50
2018-02-09T11:27:22.895Z,39.80
2018-02-09T11:28:22.875Z,40.60
2018-02-09T11:29:22.855Z,37.70
2018-02-09T11:30:22.840Z,38.90
2018-02-09T11:31:22.824Z,38.60
2018-02-09T11:32:22.810Z,40.10
2018-02-09T11:33:22.797Z,41.50
2018-02-09T11:34:22.775Z,43.20
2018-02-09T11:35:22.759Z,37.20
2018-02-09T11:36:22.744Z,42.00
2018-02-09T11:37:22.730Z,42.00
2018-02-09T11:38:22.711Z,39.10
2018-02-09T11:39:22.700Z,37.60
2018-02-09T11:40:22.681Z,40.40
2018-02-09T11:41:22.665Z,40.10
2018-02-09T11:42:22.646Z,38.70
2018-02-09T11:43:22.634Z,40.00
2018-02-09T11:44:22.622Z,40.30
2018-02-09T11:45:22.601Z,38.90
2018-02-09T11:46:22.589Z,40.60
2018-02-09T11:47:22.572Z,39.60
2018-02-09T11:48:22.557Z,39.50
2018-02-09T11:49:22.540Z,41.60
2018-02-09T11:50:22.521Z,44.10
2018-02-09T11:51:22.516Z,41.70
2018-02-09T11:52:22.496Z,39.30
2018-02-09T11:53:22.471Z,39.20
2018-02-09T11:54:22.458Z,41.90
2018-02-09T11:55:22.471Z,42.70
2018-02-09T11:56:22.424Z,43.70
2018-02-09T11:57:22.407Z,43.50
2018-02-09T11:58:22.391Z,38.60
2018-02-09T11:59:22.375Z,42.40
2018-02-09T12:00:22.361Z,43.70
2018-02-09T12:01:22.345Z,39.40
2018-02-09T12:02:22.374Z,45.60
2018-02-09T12:03:22.313Z,41.80
2018-02-09T12:04:22.300Z,40.80
2018-02-09T12:05:22.280Z,42.90
2018-02-09T12:06:22.272Z,45.10
2018-02-09T12:07:22.251Z,43.40
2018-02-09T12:08:22.234Z,45.50
2018-02-09T12:09:22.226Z,41.30
2018-02-09T12:10:22.206Z,42.10
2018-02-09T12:11:22.184Z,43.40
2018-02-09T12:12:22.171Z,40.80
2018-02-09T12:13:22.153Z,43.70
2018-02-09T12:14:22.136Z,43.70
2018-02-09T12:15:22.126Z,42.50
2018-02-09T12:16:22.105Z,43.50
2018-02-09T12:17:22.094Z,41.80
2018-02-09T12:18:22.073Z,43.60
2018-02-09T12:19:22.057Z,45.10
2018-02-09T12:20:22.042Z,41.80
2018-02-09T12:21:22.032Z,42.80
2018-02-09T12:22:22.014Z,46.10
2018-02-09T12:23:22.000Z,43.10
2018-02-09T12:24:21.982Z,43.70
2018-02-09T12:25:21.964Z,39.70
2018-02-09T12:26:21.947Z,40.70
2018-02-09T12:27:21.932Z,46.10
2018-02-09T12:28:21.913Z,39.90
2018-02-09T12:29:21.905Z,42.00
2018-02-09T12:30:21.882Z,38.70
2018-02-09T12:31:21.865Z,42.50
2018-02-09T12:32:21.848Z,40.20
2018-02-09T12:33:21.836Z,41.10
2018-02-09T12:34:21.821Z,37.40
2018-02-09T12:35:21.800Z,39.40
2018-02-09T12:36:21.792Z,39.50
2018-02-09T12:37:21.771Z,39.10
2018-02-09T12:38:21.761Z,35.60
2018-02-09T12:39:21.736Z,37.00
2018-02-09T12:40:21.730Z,34.80
2018-02-09T12:41:21.705Z,35.30
2018-02-09T12:42:21.687Z,33.90
2018-02-09T12:43:21.673Z,35.20
2018-02-09T12:44:21.657Z,36.80
2018-02-09T12:45:21.643Z,38.10
2018-02-09T12:46:21.626Z,36.80
2018-02-09T12:47:21.608Z,36.10
2018-02-09T12:48:21.603Z,37.00
2018-02-09T12:49:21.577Z,35.80
2018-02-09T12:50:21.567Z,39.10
2018-02-09T12:51:21.544Z,36.00
2018-02-09T12:52:21.526Z,36.90